createdAt,value
2022-08-28T00:03:23.225Z,106.7
2022-08-28T00:05:48.356Z,110.3
2022-08-28T00:08:14.985Z,106.5
2022-08-28T00:10:41.600Z,98.6
2022-08-28T00:13:08.213Z,96
2022-08-28T00:15:34.858Z,109.7
2022-08-28T00:20:28.092Z,98
2022-08-28T00:22:54.715Z,91.6
2022-08-28T00:25:21.327Z,100.3
2022-08-28T00:27:47.954Z,108.1
2022-08-28T00:32:41.204Z,102.8
2022-08-28T00:35:07.832Z,87.7
2022-08-28T00:37:32.958Z,94.4
2022-08-28T00:39:59.586Z,99.5
2022-08-28T00:42:26.205Z,94.5
2022-08-28T00:44:52.833Z,92.6
2022-08-28T00:47:19.457Z,84.1
2022-08-28T00:49:46.068Z,81.2
2022-08-28T00:52:12.687Z,68
2022-08-28T00:54:39.318Z,69.2
2022-08-28T00:57:05.918Z,73.7
2022-08-28T00:59:32.563Z,87.7
2022-08-28T01:01:59.186Z,76.7
2022-08-28T01:04:24.896Z,77.8
2022-08-28T01:09:18.145Z,76.5
2022-08-28T01:11:44.774Z,78.9
2022-08-28T01:16:37.999Z,77.2
2022-08-28T01:19:04.650Z,84.6
2022-08-28T01:21:29.759Z,77.8
2022-08-28T01:23:56.381Z,92.8
2022-08-28T01:26:23.003Z,106.3
2022-08-28T01:28:49.671Z,111.5
2022-08-28T01:33:42.882Z,108.6
2022-08-28T01:36:09.503Z,162.5
2022-08-28T01:38:36.112Z,137.5
2022-08-28T01:41:02.736Z,127.8
2022-08-28T01:45:55.973Z,97.1
2022-08-28T01:48:22.624Z,117
2022-08-28T01:50:49.230Z,137.9
2022-08-28T01:58:07.611Z,105.5
2022-08-28T02:00:34.233Z,106.6
2022-08-28T02:02:59.942Z,101.2
2022-08-28T02:05:26.544Z,87.1
2022-08-28T02:07:53.162Z,87.5
2022-08-28T02:10:19.797Z,84.2
2022-08-28T02:15:13.040Z,99.4
2022-08-28T02:17:39.661Z,88.2
2022-08-28T02:22:32.899Z,87.9
2022-08-28T02:24:58.040Z,80.8
2022-08-28T02:29:51.273Z,80.6
2022-08-28T02:32:17.915Z,75.5
2022-08-28T02:34:43.549Z,80
2022-08-28T02:37:10.167Z,78
2022-08-28T02:39:36.778Z,62.1
2022-08-28T02:42:03.417Z,80.3
2022-08-28T02:44:30.030Z,98
2022-08-28T02:46:56.654Z,83.1
2022-08-28T02:49:23.280Z,99.7
2022-08-28T02:51:49.901Z,89.1
2022-08-28T02:54:16.529Z,88
2022-08-28T02:56:41.658Z,89
2022-08-28T02:59:08.270Z,91.9
2022-08-28T03:01:34.899Z,95.2
2022-08-28T03:04:01.511Z,90.9
2022-08-28T03:06:28.141Z,95.2
2022-08-28T03:11:21.394Z,81
2022-08-28T03:13:48.017Z,77.8
2022-08-28T03:16:14.642Z,79
2022-08-28T03:18:41.244Z,77.1
2022-08-28T03:21:06.387Z,76.5
2022-08-28T03:23:31.503Z,84.4
2022-08-28T03:25:58.139Z,68.6
2022-08-28T03:28:24.752Z,62.2
2022-08-28T03:30:50.427Z,71.8
2022-08-28T03:33:17.052Z,67.9
2022-08-28T03:35:43.656Z,65.3
2022-08-28T03:38:10.292Z,78.1
2022-08-28T03:40:36.913Z,54.4
2022-08-28T03:43:03.533Z,66.7
2022-08-28T03:45:30.157Z,51.8
2022-08-28T03:47:55.292Z,65.2
2022-08-28T03:50:20.419Z,68.8
2022-08-28T03:52:47.039Z,67.1
2022-08-28T03:55:13.671Z,66.3
2022-08-28T04:00:06.915Z,49.4
2022-08-28T04:02:33.539Z,49.2
2022-08-28T04:05:00.143Z,50.7
2022-08-28T04:07:26.769Z,51.6
2022-08-28T04:12:20.016Z,50
2022-08-28T04:14:46.638Z,49.6
2022-08-28T04:17:13.253Z,56.7
2022-08-28T04:19:38.395Z,55.3
2022-08-28T04:22:05.017Z,49.2
2022-08-28T04:26:56.759Z,53.3
2022-08-28T04:29:23.396Z,48.4
2022-08-28T04:31:50.020Z,45.3
2022-08-28T04:34:16.631Z,37.7
2022-08-28T04:36:43.256Z,48.5
2022-08-28T04:39:09.892Z,44.4
2022-08-28T04:41:36.510Z,47
2022-08-28T04:44:03.131Z,52.2
2022-08-28T04:48:56.377Z,47.6
2022-08-28T04:51:22.996Z,48
2022-08-28T04:53:49.627Z,54.1
2022-08-28T04:56:14.760Z,55
2022-08-28T04:58:39.891Z,64.5
2022-08-28T05:01:06.496Z,53.9
2022-08-28T05:03:33.128Z,64.5
2022-08-28T05:05:59.744Z,59.1
2022-08-28T05:08:26.376Z,63.5
2022-08-28T05:10:53.021Z,68.1
2022-08-28T05:13:19.625Z,60.3
2022-08-28T05:15:46.245Z,54.7
2022-08-28T05:18:12.857Z,55.3
2022-08-28T05:20:39.476Z,43.6
2022-08-28T05:23:04.626Z,38.8
2022-08-28T05:25:31.233Z,40.1
2022-08-28T05:27:56.377Z,34.3
2022-08-28T05:30:22.991Z,38.8
2022-08-28T05:32:49.606Z,32.4
2022-08-28T05:35:16.241Z,33.6
2022-08-28T05:37:42.867Z,37.3
2022-08-28T05:40:09.492Z,32.9
2022-08-28T05:42:35.135Z,33.7
2022-08-28T05:45:01.750Z,34.6
2022-08-28T05:47:28.383Z,30.7
2022-08-28T05:49:53.518Z,31
2022-08-28T05:52:18.652Z,25.3
2022-08-28T05:54:45.257Z,27.6
2022-08-28T05:57:11.892Z,25.6
2022-08-28T05:59:38.516Z,27.8
2022-08-28T06:02:05.130Z,27
2022-08-28T06:04:31.757Z,26.6
2022-08-28T06:06:57.508Z,27.4
2022-08-28T06:09:24.130Z,29.9
2022-08-28T06:11:50.760Z,36.5
2022-08-28T06:14:17.376Z,27
2022-08-28T06:16:43.992Z,26
2022-08-28T06:19:10.614Z,28.2
2022-08-28T06:21:37.252Z,27.4
2022-08-28T06:24:03.870Z,24.5
2022-08-28T06:26:29.010Z,23.7
2022-08-28T06:28:55.607Z,26
2022-08-28T06:31:22.229Z,21.8
2022-08-28T06:33:48.861Z,22.8
2022-08-28T06:36:15.485Z,21.6
2022-08-28T06:38:42.098Z,20.6
2022-08-28T06:41:08.731Z,24
2022-08-28T06:43:35.343Z,23
2022-08-28T06:46:01.971Z,20.6
2022-08-28T06:48:28.598Z,20.3
2022-08-28T06:50:55.217Z,25.3
2022-08-28T06:53:21.835Z,22.5
2022-08-28T06:55:48.470Z,20.5
2022-08-28T06:58:15.085Z,22.8
2022-08-28T07:00:40.211Z,21.3
2022-08-28T07:03:06.829Z,20.6
2022-08-28T07:05:33.457Z,20.3
2022-08-28T07:08:00.077Z,21.5
2022-08-28T07:10:25.227Z,18.3
2022-08-28T07:12:51.839Z,21.4
2022-08-28T07:15:18.470Z,22.2
2022-08-28T07:17:45.071Z,19.1
2022-08-28T07:20:11.700Z,19.3
2022-08-28T07:22:38.320Z,20
2022-08-28T07:25:04.950Z,19.9
2022-08-28T07:27:31.592Z,22.9
2022-08-28T07:29:58.185Z,20.6
2022-08-28T07:32:24.810Z,19.8
2022-08-28T07:34:51.455Z,19.5
2022-08-28T07:37:18.061Z,20
2022-08-28T07:39:44.390Z,20.7
2022-08-28T07:42:09.513Z,21.7
2022-08-28T07:44:36.131Z,20
2022-08-28T07:47:02.752Z,20.6
2022-08-28T07:49:29.386Z,21
2022-08-28T07:51:56.005Z,20
2022-08-28T07:54:22.636Z,19.5
2022-08-28T07:56:49.253Z,20.8
2022-08-28T07:59:15.862Z,19
2022-08-28T08:01:42.508Z,19.5
2022-08-28T08:06:35.042Z,17.9
2022-08-28T08:09:01.676Z,17.7
2022-08-28T08:11:28.293Z,18.2
2022-08-28T08:13:53.444Z,18.7
2022-08-28T08:16:20.052Z,16.1
2022-08-28T08:18:46.669Z,18.1
2022-08-28T08:21:13.291Z,17.8
2022-08-28T08:23:39.935Z,16.9
2022-08-28T08:26:06.536Z,17.1
2022-08-28T08:28:33.187Z,19.9
2022-08-28T08:30:59.782Z,18.1
2022-08-28T08:33:26.407Z,15.9
2022-08-28T08:35:53.026Z,16.2
2022-08-28T08:38:19.655Z,15.8
2022-08-28T08:40:46.272Z,17.1
2022-08-28T08:43:12.885Z,14.7
2022-08-28T08:45:39.514Z,15.6
2022-08-28T08:48:04.654Z,15.1
2022-08-28T08:50:31.261Z,14.7
2022-08-28T08:52:57.897Z,14.8
2022-08-28T08:55:24.517Z,15.8
2022-08-28T08:57:51.128Z,16.9
2022-08-28T09:00:17.756Z,15.2
2022-08-28T09:02:44.385Z,13.8
2022-08-28T09:05:10.996Z,16.1
2022-08-28T09:07:37.632Z,16.2
2022-08-28T09:10:04.251Z,14.9
2022-08-28T09:12:30.864Z,15.6
2022-08-28T09:14:57.481Z,14.8
2022-08-28T09:19:50.741Z,13.5
2022-08-28T09:22:16.416Z,12.4
2022-08-28T09:24:43.035Z,12.8
2022-08-28T09:27:08.151Z,12.2
2022-08-28T09:29:34.780Z,13.1
2022-08-28T09:32:01.414Z,13.3
2022-08-28T09:34:27.255Z,13
2022-08-28T09:36:53.881Z,14.7
2022-08-28T09:41:47.112Z,12.8
2022-08-28T09:49:06.988Z,12.9
2022-08-28T09:51:32.113Z,12.5
2022-08-28T09:53:58.729Z,13.3
2022-08-28T09:56:25.360Z,12.3
2022-08-28T09:58:51.984Z,11.3
2022-08-28T10:01:18.618Z,12.4
2022-08-28T10:03:43.738Z,11.8
2022-08-28T10:06:10.359Z,11.4
2022-08-28T10:08:36.986Z,12.8
2022-08-28T10:11:03.590Z,12.2
2022-08-28T10:13:30.217Z,10.8
2022-08-28T10:18:23.472Z,10.7
2022-08-28T10:20:50.091Z,11.5
2022-08-28T10:23:16.707Z,10.7
2022-08-28T10:25:43.332Z,10.4
2022-08-28T10:28:09.952Z,11.1
2022-08-28T10:30:36.592Z,9.5
2022-08-28T10:33:03.203Z,9.8
2022-08-28T10:35:29.820Z,10.6
2022-08-28T10:37:56.450Z,12.5
2022-08-28T10:40:21.581Z,11
2022-08-28T10:42:47.538Z,11.9
2022-08-28T10:45:12.684Z,10.8
2022-08-28T10:47:39.291Z,9.8
2022-08-28T10:50:05.925Z,10.2
2022-08-28T10:52:32.560Z,9.9
2022-08-28T10:54:57.664Z,10.2
2022-08-28T10:57:24.307Z,10.2
2022-08-28T10:59:50.916Z,9.9
2022-08-28T11:02:17.532Z,8.6
2022-08-28T11:07:10.779Z,9.2
2022-08-28T11:09:37.403Z,10.2
2022-08-28T11:12:04.027Z,9.2
2022-08-28T11:16:57.273Z,9.6
2022-08-28T11:21:50.519Z,10.1
2022-08-28T11:24:17.136Z,8.3
2022-08-28T11:26:42.801Z,9.3
2022-08-28T11:29:09.429Z,9.2
2022-08-28T11:31:36.069Z,9.5
2022-08-28T11:36:27.799Z,8.7
2022-08-28T11:38:54.431Z,8.4
2022-08-28T11:41:21.046Z,8.3
2022-08-28T11:43:47.675Z,9.1
2022-08-28T11:46:12.813Z,8.1
2022-08-28T11:48:39.427Z,10.9
2022-08-28T11:51:05.118Z,8.9
2022-08-28T11:53:30.262Z,7.5
2022-08-28T11:55:56.873Z,8.2
2022-08-28T11:58:23.508Z,7.9
2022-08-28T12:00:50.131Z,8.3
2022-08-28T12:05:43.380Z,7.4
2022-08-28T12:08:10.000Z,8.9
2022-08-28T12:10:36.608Z,7.8
2022-08-28T12:13:03.246Z,8.1
2022-08-28T12:15:29.861Z,8.1
2022-08-28T12:17:56.497Z,7.6
2022-08-28T12:20:23.110Z,7.2
2022-08-28T12:22:49.726Z,9.4
2022-08-28T12:25:16.347Z,7.7
2022-08-28T12:30:09.597Z,6.9
2022-08-28T12:35:02.875Z,8.2
2022-08-28T12:37:27.976Z,7.6
2022-08-28T12:39:54.595Z,9.6
2022-08-28T12:42:19.722Z,8
2022-08-28T12:44:46.359Z,7.9
2022-08-28T12:47:12.976Z,7.9
2022-08-28T12:49:39.597Z,7.6
2022-08-28T12:52:06.217Z,8.9
2022-08-28T12:56:59.469Z,8
2022-08-28T12:59:26.092Z,7.5
2022-08-28T13:04:19.335Z,7.6
2022-08-28T13:06:45.957Z,7.8
2022-08-28T13:09:12.576Z,7.5
2022-08-28T13:11:39.207Z,7.7
2022-08-28T13:14:04.328Z,7.7
2022-08-28T13:16:30.969Z,8.7
2022-08-28T13:18:57.581Z,8
2022-08-28T13:21:24.203Z,7.4
2022-08-28T13:23:50.825Z,7.4
2022-08-28T13:26:17.458Z,7
2022-08-28T13:28:44.067Z,9.3
2022-08-28T13:31:10.662Z,7.7
2022-08-28T13:33:37.273Z,8
2022-08-28T13:36:03.902Z,8.8
2022-08-28T13:38:30.521Z,7.5
2022-08-28T13:40:57.151Z,8.6
2022-08-28T13:43:23.759Z,8.3
2022-08-28T13:45:50.400Z,8.3
2022-08-28T13:48:17.027Z,8.9
2022-08-28T13:50:42.136Z,7.7
2022-08-28T13:53:08.770Z,7.7
2022-08-28T13:55:33.897Z,7.8
2022-08-28T13:57:59.664Z,8.2
2022-08-28T14:02:52.906Z,7.8
2022-08-28T14:05:19.525Z,10.4
2022-08-28T14:07:46.141Z,7.1
2022-08-28T14:10:12.772Z,9.8
2022-08-28T14:12:39.389Z,7
2022-08-28T14:17:32.640Z,7.6
2022-08-28T14:19:59.266Z,6.8
2022-08-28T14:22:25.881Z,7.5
2022-08-28T14:27:17.643Z,6.9
2022-08-28T14:29:44.273Z,7
2022-08-28T14:32:09.393Z,7.7
2022-08-28T14:34:36.019Z,7.1
2022-08-28T14:37:01.155Z,6.6
2022-08-28T14:39:27.773Z,7.1
2022-08-28T14:41:54.394Z,7.2
2022-08-28T14:44:21.023Z,8.9
2022-08-28T14:46:47.630Z,7.8
2022-08-28T14:49:14.256Z,7.1
2022-08-28T14:51:40.882Z,7
2022-08-28T14:54:07.520Z,7.8
2022-08-28T14:56:34.152Z,8
2022-08-28T14:58:59.273Z,8.9
2022-08-28T15:01:25.891Z,7
2022-08-28T15:03:51.013Z,8.1
2022-08-28T15:06:17.631Z,6.7
2022-08-28T15:08:44.269Z,7.4
2022-08-28T15:11:10.877Z,7
2022-08-28T15:13:37.510Z,8.4
2022-08-28T15:16:03.699Z,6.5
2022-08-28T15:18:30.305Z,7.7
2022-08-28T15:20:56.942Z,7.2
2022-08-28T15:23:22.075Z,6.5
2022-08-28T15:25:47.217Z,7.9
2022-08-28T15:28:12.333Z,6.5
2022-08-28T15:30:38.941Z,6.9
2022-08-28T15:33:05.574Z,8.9
2022-08-28T15:35:32.191Z,6.7
2022-08-28T15:37:58.831Z,7.1
2022-08-28T15:40:25.435Z,6.5
2022-08-28T15:42:52.068Z,7.9
2022-08-28T15:45:18.700Z,7.9
2022-08-28T15:47:45.313Z,6.3
2022-08-28T15:50:11.932Z,7.6
2022-08-28T15:52:38.553Z,7.3
2022-08-28T15:55:05.173Z,8.2
2022-08-28T15:57:31.821Z,8.2
2022-08-28T15:59:56.948Z,7.1
2022-08-28T16:02:23.552Z,8.7
2022-08-28T16:04:50.183Z,6.9
2022-08-28T16:07:16.017Z,6.4
2022-08-28T16:09:42.643Z,7.5
2022-08-28T16:12:09.254Z,6.2
2022-08-28T16:14:35.876Z,7.3
2022-08-28T16:17:02.502Z,7
2022-08-28T16:19:29.124Z,7.8
2022-08-28T16:21:55.762Z,8.4
2022-08-28T16:24:22.378Z,7.1
2022-08-28T16:26:49.008Z,7.2
2022-08-28T16:29:15.668Z,6.5
2022-08-28T16:31:40.779Z,6.3
2022-08-28T16:34:07.391Z,6.5
2022-08-28T16:36:34.009Z,6.8
2022-08-28T16:38:59.825Z,7.7
2022-08-28T16:41:26.459Z,6.9
2022-08-28T16:43:53.067Z,6.2
2022-08-28T16:46:19.691Z,8
2022-08-28T16:48:46.313Z,6.6
2022-08-28T16:51:12.947Z,5.5
2022-08-28T16:53:39.559Z,5.9
2022-08-28T16:56:06.187Z,6.1
2022-08-28T16:58:32.811Z,5.9
2022-08-28T17:00:59.399Z,6.1
2022-08-28T17:03:26.040Z,6.7
2022-08-28T17:05:51.163Z,8.6
2022-08-28T17:08:17.786Z,6
2022-08-28T17:10:44.409Z,7.8
2022-08-28T17:13:11.018Z,6.6
2022-08-28T17:15:37.639Z,6
2022-08-28T17:18:04.277Z,6.8
2022-08-28T17:20:30.903Z,6.2
2022-08-28T17:22:57.513Z,6.7
2022-08-28T17:25:24.163Z,6.9
2022-08-28T17:27:50.759Z,7.2
2022-08-28T17:30:17.386Z,7.4
2022-08-28T17:32:44.012Z,7.5
2022-08-28T17:35:10.631Z,7.1
2022-08-28T17:37:35.754Z,7.8
2022-08-28T17:40:02.384Z,9.4
2022-08-28T17:42:29.004Z,9.9
2022-08-28T17:44:55.618Z,8.4
2022-08-28T17:47:21.756Z,8
2022-08-28T17:52:15.008Z,8.5
2022-08-28T17:54:41.623Z,8.4
2022-08-28T17:57:08.242Z,8.8
2022-08-28T17:59:34.865Z,8.5
2022-08-28T18:02:01.488Z,8.7
2022-08-28T18:04:28.112Z,8.9
2022-08-28T18:06:53.754Z,8.6
2022-08-28T18:09:20.379Z,7.9
2022-08-28T18:11:45.497Z,9.6
2022-08-28T18:14:12.113Z,8.8
2022-08-28T18:16:38.743Z,8.4
2022-08-28T18:19:05.372Z,8.3
2022-08-28T18:21:31.981Z,9.6
2022-08-28T18:23:58.624Z,12.8
2022-08-28T18:26:25.231Z,9.5
2022-08-28T18:28:51.852Z,9.2
2022-08-28T18:31:18.469Z,10
2022-08-28T18:33:45.107Z,10.7
2022-08-28T18:36:11.726Z,8.5
2022-08-28T18:38:38.350Z,8.9
2022-08-28T18:41:04.958Z,9.7
2022-08-28T18:43:31.590Z,9.4
2022-08-28T18:45:58.213Z,10.3
2022-08-28T18:48:23.344Z,8.9
2022-08-28T18:50:49.953Z,10.2
2022-08-28T18:53:16.580Z,11
2022-08-28T18:55:43.201Z,9.1
2022-08-28T18:58:09.831Z,10.9
2022-08-28T19:00:36.457Z,11.6
2022-08-28T19:03:03.083Z,9.9
2022-08-28T19:05:29.701Z,9.3
2022-08-28T19:07:56.322Z,10.9
2022-08-28T19:10:22.947Z,11.2
2022-08-28T19:12:49.571Z,10
2022-08-28T19:15:16.187Z,12
2022-08-28T19:17:42.823Z,10.2
2022-08-28T19:20:07.942Z,9.8
2022-08-28T19:22:34.576Z,10.2
2022-08-28T19:25:01.185Z,10.6
2022-08-28T19:27:27.810Z,9
2022-08-28T19:29:53.500Z,10
2022-08-28T19:32:20.139Z,10.3
2022-08-28T19:34:46.757Z,10.7
2022-08-28T19:37:13.382Z,10.5
2022-08-28T19:39:39.996Z,10.8
2022-08-28T19:42:06.627Z,14.8
2022-08-28T19:44:33.239Z,11
2022-08-28T19:46:59.876Z,12.3
2022-08-28T19:49:26.487Z,13.1
2022-08-28T19:51:51.615Z,10.8
2022-08-28T19:54:18.233Z,10.8
2022-08-28T19:56:44.856Z,9.9
2022-08-28T19:59:11.473Z,8.8
2022-08-28T20:01:38.105Z,9.4
2022-08-28T20:04:04.728Z,12.2
2022-08-28T20:06:31.352Z,20.8
2022-08-28T20:08:57.972Z,12.9
2022-08-28T20:11:24.598Z,14.2
2022-08-28T20:13:51.226Z,15.5
2022-08-28T20:16:17.840Z,17.6
2022-08-28T20:18:44.469Z,13.1
2022-08-28T20:21:11.091Z,14.1
2022-08-28T20:23:36.214Z,15.5
2022-08-28T20:26:02.830Z,18.4
2022-08-28T20:28:29.451Z,22.9
2022-08-28T20:30:56.091Z,24.2
2022-08-28T20:33:22.701Z,18.6
2022-08-28T20:35:49.334Z,17.5
2022-08-28T20:38:15.952Z,10.9
2022-08-28T20:40:42.576Z,12.5
2022-08-28T20:43:09.196Z,12
2022-08-28T20:45:35.820Z,11.8
2022-08-28T20:48:02.446Z,11.8
2022-08-28T20:50:29.062Z,13.8
2022-08-28T20:52:55.684Z,11.6
2022-08-28T20:55:20.827Z,14
2022-08-28T20:57:47.441Z,11
2022-08-28T21:00:14.071Z,13.5
2022-08-28T21:02:40.683Z,12.9
2022-08-28T21:05:07.310Z,12.1
2022-08-28T21:07:33.936Z,12.2
2022-08-28T21:10:00.560Z,11.2
2022-08-28T21:12:27.178Z,11.8
2022-08-28T21:14:53.793Z,12.6
2022-08-28T21:17:20.457Z,11.6
2022-08-28T21:19:47.050Z,11.7
2022-08-28T21:22:13.664Z,12.8
2022-08-28T21:24:39.421Z,13.1
2022-08-28T21:27:04.562Z,12.3
2022-08-28T21:29:31.172Z,11.9
2022-08-28T21:31:57.788Z,12
2022-08-28T21:34:24.414Z,12.2
2022-08-28T21:36:51.027Z,11.4
2022-08-28T21:39:17.648Z,14.7
2022-08-28T21:41:44.270Z,11.9
2022-08-28T21:44:10.902Z,12.3
2022-08-28T21:46:37.521Z,11.5
2022-08-28T21:49:04.163Z,12
2022-08-28T21:51:30.765Z,16.9
2022-08-28T21:53:57.391Z,14.2
2022-08-28T21:56:24.012Z,14.7
2022-08-28T21:58:50.639Z,12.5
2022-08-28T22:01:15.757Z,12.2
2022-08-28T22:03:42.386Z,15.4
2022-08-28T22:06:09.009Z,14.8
2022-08-28T22:08:35.620Z,16.7
2022-08-28T22:11:02.249Z,17
2022-08-28T22:13:28.876Z,16.8
2022-08-28T22:15:55.493Z,16.8
2022-08-28T22:18:22.128Z,14.5
2022-08-28T22:20:48.748Z,19.9
2022-08-28T22:23:15.371Z,17.1
2022-08-28T22:25:41.998Z,13.5
2022-08-28T22:28:08.614Z,13
2022-08-28T22:30:35.248Z,12.8
2022-08-28T22:33:00.347Z,13.7
2022-08-28T22:35:26.973Z,12.8
2022-08-28T22:37:53.595Z,12.3
2022-08-28T22:40:20.225Z,14.3
2022-08-28T22:42:46.851Z,12.7
2022-08-28T22:45:13.466Z,11.8
2022-08-28T22:47:40.100Z,12.5
2022-08-28T22:50:06.729Z,13.6
2022-08-28T22:52:33.333Z,13.2
2022-08-28T22:54:59.999Z,14.6
2022-08-28T22:57:26.575Z,11.5
2022-08-28T22:59:53.199Z,15.3
2022-08-28T23:02:19.830Z,15.1
2022-08-28T23:04:44.951Z,17
2022-08-28T23:07:11.572Z,13.5
2022-08-28T23:09:38.203Z,13.3
2022-08-28T23:12:04.838Z,21
2022-08-28T23:14:31.440Z,16
2022-08-28T23:16:58.081Z,14.1
2022-08-28T23:19:24.697Z,17.8
2022-08-28T23:21:50.457Z,14.7
2022-08-28T23:24:17.072Z,17.6
2022-08-28T23:26:43.699Z,14.2
2022-08-28T23:29:10.335Z,16.2
2022-08-28T23:31:36.977Z,17.1
2022-08-28T23:34:02.115Z,15.6
2022-08-28T23:36:28.735Z,14.6
2022-08-28T23:38:55.351Z,18
2022-08-28T23:41:21.952Z,14.1
2022-08-28T23:43:48.560Z,17
2022-08-28T23:46:15.218Z,17.6
2022-08-28T23:48:41.839Z,15.1
2022-08-28T23:51:08.443Z,14.4
2022-08-28T23:53:35.057Z,13.2
2022-08-28T23:56:01.696Z,12.9
2022-08-28T23:58:27.419Z,13.8
